EGKKTTPP

Guest
Details From EGKK - London Gatwick
To TTPP - Trinidade Piarco
Flight Number -
Tags Generated
Created
Modified
Stats Distance 3,834 nm / 7,101 km
Max Altitude 0 ft / 0 m
Waypoints 4
Social Downloads 4
Likes 0
Share VATSIM

Download

Looking for another format? Having issues loading an existing format? Contact us
Advertisement - Login to hide

Notes

Generated

Route

EGKK IDOKI R1535 TTPP

ID Type Via Altitude Latitude Longitude Leg Dist Tot Dist Heading (true) Name
O EGKK APT - 0 ft / 0 m 51.14691˚ -0.21257˚ - 0 nm - -
IDOKI FIX - 0 ft / 0 m 49.86028˚ -6.19417˚ 241 nm 241 nm 254° / 249° -
R1535 FIX - 0 ft / 0 m 10.59533˚ -61.35186˚ 3593 nm 3834 nm 249° / 218° -
O TTPP APT - 0 ft / 0 m 10.59533˚ -61.35186˚ 0 nm 3834 nm 0° / 180° -

Altitude Profile

Advertisement - Login to hide

Weather


0- 5 10 15 20 25 30 35+ Temperature / ° C

Clouds and Precipitation
Forecast for 2017-12-18 06:00 UTC. Updated 2 hours ago

Ground ~20,000 ft ~40,000 ft Winds

EGKK

Details ICAO EGKK (LGW)
Name London Gatwick
Region United Kingdom
Timezone Europe/London (UTC+0.0)
Stats Elevation 196 ft / 60 m (AMSL)
Location 51.148753° -0.192472°
Runways 2
Magnetic Variation 0.431° W

METAR

EGKK 180520Z VRB02KT CAVOK 01/01 Q1024

Decode

TAF

TAF TAF EGKK 172255Z 1800/1906 24010KT 9999 FEW020 PROB30 TEMPO 1800/1802 6000 BKN008 PROB30 1803/1810 6000 BECMG 1815/1818 VRB03KT 4000 BR PROB30 1817/1820 0200 FG VV/// BECMG 1820/1823 0200 FZFG FG VV/// PROB30 TEMPO 1823/1906 2000 BR SCT001

Decode

Departure Runways

ID Width Length Bearing (true) Bearing (mag) Surface Threshold Offset Overrun Length
08L 148 ft / 45 m 8,377 ft / 2,553 m 77.69° 78.12° Asphalt 1,053 ft / 321 m 0 ft / 0 m
08R 148 ft / 45 m 10,341 ft / 3,152 m 77.59° 78.02° Asphalt 1,289 ft / 393 m 0 ft / 0 m
26L 148 ft / 45 m 10,341 ft / 3,152 m 257.63° 258.06° Asphalt 879 ft / 268 m 600 ft / 183 m
26R 148 ft / 45 m 8,377 ft / 2,553 m 257.71° 258.14° Asphalt 1,365 ft / 416 m 0 ft / 0 m

TTPP

Details ICAO TTPP (POS)
Name Trinidad/Piarco Intl
Region Trinidad and Tobago
Timezone America/Port_of_Spain (UTC-4.0)
Stats Elevation 57 ft / 17 m (AMSL)
Location 10.595370° -61.337239°
Runways 1
Magnetic Variation 15.001° W

METAR

TTPP 180500Z 00000KT 9999 FEW016 23/22 Q1013 NOSIG

Decode

TAF

Not found

Destination Runways

ID Width Length Bearing (true) Bearing (mag) Surface Threshold Offset Overrun Length
10 151 ft / 46 m 10,486 ft / 3,196 m 89.83° 104.83° Asphalt 0 ft / 0 m 79 ft / 24 m
28 151 ft / 46 m 10,486 ft / 3,196 m 269.84° 284.84° Asphalt 0 ft / 0 m 184 ft / 56 m

Approach Navaids

Runway Type Ident Frequency Range Bearing (true) Bearing (mag) Slope Elevation
10 Localiser IPOS 109.70 MHz 18 nm / 33 km 89.49° 104.49° - 57 ft / 17 m (AMSL)
10 Glidescope IPOS 109.70 MHz 10 nm / 19 km 89.83° 104.84° 3.00° 57 ft / 17 m (AMSL)
10 DME IPOS 109.70 MHz 18 nm / 33 km - - - 57 ft / 17 m (AMSL)

Popular Alternatives